Flight Track Log - Related Links

Times and Time Zones

All times are in EDT time to prevent confusion due to time zone crossing. See the RPA4886 flight status page for this flight to view local times or setup timezone preferences in your user account.

Time Position Orientation Groundspeed Altitude Reporting Facility
EDT Latitude Longitude Course Direction KTS MPH feet Rate Location/Type
Mon 05:15:55 PM 38.9500 -77.5167 314° West 197 227 1,600  Level Potomac TRACON
Mon 05:16:55 PM 39.0000 -77.5833 314° West 230 265 3,700 2,200 Climbing Potomac TRACON
Mon 05:17:55 PM 39.0500 -77.5667 15° North 234 269 6,000 2,050 Climbing Potomac TRACON
Mon 05:18:55 PM 39.1000 -77.5000 46° Northeast 244 281 7,800 1,565 Climbing Potomac TRACON
Mon 05:19:50 PM 39.1333 -77.4333 57° Northeast 264 304 9,000 861 Climbing Potomac TRACON
Mon 05:22:17 PM 39.2400 -77.2264 56° Northeast 288 331 10,700 894 Climbing Washington Center
Mon 05:23:18 PM 39.2850 -77.1361 57° Northeast 282 325 12,100 1,438 Climbing Washington Center
Mon 05:24:18 PM 39.3297 -77.0486 57° Northeast 287 330 13,600 1,271 Climbing Washington Center
Mon 05:25:16 PM 39.3267 -76.9625 93° East 277 319 14,600 1,017 Climbing Washington Center
Mon 05:26:16 PM 39.3133 -76.8469 98° East 277 319 15,600 1,091 Climbing Washington Center
Mon 05:27:17 PM 39.2978 -76.7314 100° East 301 346 16,800 1,091 Climbing Washington Center
Mon 05:28:17 PM 39.2819 -76.6211 100° East 311 358 17,800 1,000 Climbing Washington Center
Mon 05:29:17 PM 39.2706 -76.5058 97° East 316 364 18,800 893 Climbing Washington Center
Mon 05:30:18 PM 39.2547 -76.3931 100° East 316 364 19,600 843 Climbing Washington Center
Mon 05:31:18 PM 39.2386 -76.2775 100° East 316 364 20,500 958 Climbing Washington Center
Mon 05:32:17 PM 39.2308 -76.1650 95° East 316 364 21,500 958 Climbing Washington Center
Mon 05:33:17 PM 39.2147 -76.0497 100° East 316 364 22,400 756 Climbing Washington Center
Mon 05:34:16 PM 39.1983 -75.9344 100° East 316 364 23,000 504 Climbing Washington Center
Mon 05:35:16 PM 39.2319 -75.8300 67° East 302 348 23,400 645 Climbing Washington Center
Mon 05:36:17 PM 39.2947 -75.7497 45° Northeast 298 343 24,300 738 Climbing Washington Center
Mon 05:37:18 PM 39.3550 -75.6694 46° Northeast 305 351 24,900 347 Climbing Washington Center
Mon 05:38:18 PM 39.4219 -75.5836 45° Northeast 310 357 25,000 50 Climbing Washington Center
Mon 05:39:19 PM 39.4906 -75.4947 45° Northeast 329 379 25,000  Level Washington Center
Mon 05:40:16 PM 39.5592 -75.4058 45° Northeast 334 384 25,000  Level Washington Center
Mon 05:41:17 PM 39.6300 -75.3114 46° Northeast 341 392 25,000  Level Washington Center
Mon 05:41:42 PM 39.6583 -75.2769 43° Northeast 368 423 25,000  Level New York Center
Mon 05:42:42 PM 39.7267 -75.1814 47° Northeast 382 440 25,000  Level New York Center
Mon 05:43:40 PM 39.7931 -75.0800 50° Northeast 372 428 25,000  Level New York Center
Mon 05:44:40 PM 39.8611 -74.9842 47° Northeast 367 422 25,000  Level New York Center
Mon 05:45:41 PM 39.9292 -74.8856 48° Northeast 367 422 25,000  Level New York Center
Mon 05:46:41 PM 39.9992 -74.7894 46° Northeast 367 422 25,000  Level New York Center
Mon 05:47:41 PM 40.0697 -74.6769 51° Northeast 361 415 25,000  Level New York Center
Mon 05:48:42 PM 40.1086 -74.5678 65° Northeast 361 415 25,000  Level New York Center
Mon 05:51:01 PM 40.2161 -74.2769 64° Northeast 364 419 25,000  Level Boston Center
Mon 05:52:01 PM 40.2617 -74.1531 64° Northeast 364 419 25,000  Level Boston Center
Mon 05:53:01 PM 40.3053 -74.0292 65° Northeast 369 425 25,000  Level Boston Center
Mon 05:54:01 PM 40.3547 -73.9078 62° Northeast 369 425 25,000  Level Boston Center
Mon 05:55:01 PM 40.4003 -73.7808 65° Northeast 369 425 25,000  Level Boston Center
Mon 05:56:01 PM 40.4433 -73.6508 66° East 377 434 25,000  Level Boston Center
Mon 05:57:01 PM 40.4906 -73.5261 64° Northeast 382 440 25,000 -200 Level Boston Center
Mon 05:58:01 PM 40.5353 -73.3986 65° Northeast 382 440 24,600 -700 Descending Boston Center
Mon 05:59:01 PM 40.5800 -73.2708 65° Northeast 382 440 23,600 -1,000 Descending Boston Center
Mon 06:00:01 PM 40.6206 -73.1508 66° East 370 426 22,600 -1,000 Descending Boston Center
Mon 06:01:01 PM 40.6608 -73.0364 65° Northeast 355 409 21,600 -1,000 Descending Boston Center
Mon 06:02:01 PM 40.7031 -72.9247 63° Northeast 342 394 20,600 -1,000 Descending Boston Center
Mon 06:03:01 PM 40.7492 -72.8128 61° Northeast 337 388 19,600 -1,000 Descending Boston Center
Mon 06:04:01 PM 40.7914 -72.6922 65° Northeast 343 395 18,600 -950 Descending Boston Center
Mon 06:05:01 PM 40.8331 -72.5525 68° East 358 412 17,700 -1,150 Descending Boston Center
Mon 06:06:01 PM 40.8769 -72.4292 65° Northeast 358 412 16,300 -1,300 Descending Boston Center
Mon 06:07:01 PM 40.9186 -72.3136 64° Northeast 358 412 15,100 -1,234 Descending Boston Center
Mon 06:07:48 PM 40.9497 -72.2286 64° Northeast 358 412 14,100 -1,211 Descending Boston Center
Mon 06:08:55 PM 40.9931 -72.1047 65° Northeast 333 383 12,800 -988 Descending Boston Center
Mon 06:09:13 PM 40.9972 -72.0825 76° East 342 394 12,700 -1,151 Descending Boston Center
Mon 06:10:08 PM 41.0386 -71.9669 65° Northeast 327 376 11,400 -1,211 Descending Boston Center
Mon 06:11:02 PM 41.0736 -71.8811 62° Northeast 314 361 10,500 -730 Descending Boston Center
Mon 06:12:03 PM 41.1378 -71.7925 46° Northeast 310 357 10,000 -234 Descending Boston Center
Mon 06:13:10 PM 41.1933 -71.6925 54° Northeast 311 358 10,000 -283 Level Boston Center
Mon 06:14:10 PM 41.2469 -71.6119 48° Northeast 296 341 9,400 -893 Descending Boston Center
Mon 06:15:11 PM 41.2964 -71.5339 50° Northeast 270 311 8,200 -1,537 Descending Boston Center
Mon 06:16:11 PM 41.3711 -71.5133 12° North 263 303 6,300 -1,537 Descending Boston Center
Mon 06:17:12 PM 41.4439 -71.4958 10° North 264 304 5,100 -639 Descending Boston Center
Mon 06:18:13 PM 41.5125 -71.4753 13° North 260 299 5,000 -50 Descending Boston Center
Mon 06:19:13 PM 41.5747 -71.4383 24° Northeast 256 295 5,000  Level Boston Center
Mon 06:20:14 PM 41.6328 -71.3958 29° Northeast 232 267 5,000  Level Boston Center
Mon 06:21:15 PM 41.6928 -71.3503 30° Northeast 232 267 5,000 -992 Level Boston Center
Mon 06:22:15 PM 41.7528 -71.3103 26° Northeast 242 278 3,000 -1,537 Descending Boston Center
Mon 06:23:16 PM 41.7992 -71.3458 330° Northwest 216 249 1,900 -942 Descending Boston Center
Mon 06:24:16 PM 41.7703 -71.3881 227° Southwest 165 190 1,100 -744 Descending Boston Center
Mon 06:25:17 PM 41.7392 -71.4164 214° Southwest 132 152 400 -689 Descending Boston Center

Login

Don't have an account? Register now (free) for customized features, flight alerts, and more!